Time;durP1;ratioP1;P1;durP2;ratioP2;P2;SDS_P1;SDS_P2;PMS_P1;PMS_P2;Temp;Humidity;BMP_temperature;BMP_pressure;BME280_temperature;BME280_humidity;BME280_pressure;Samples;Min_cycle;Max_cycle;Signal;HPM_P1;HPM_P2
2023/07/28 00:01:11;;;;;;;13.32;4.88;;;;;;;19.16;100.00;100523.97;5032488;28;20584;-74
2023/07/28 00:03:36;;;;;;;14.25;5.38;;;;;;;19.19;100.00;100534.44;5031825;28;20084;-77
2023/07/28 00:06:02;;;;;;;12.88;5.10;;;;;;;19.18;100.00;100527.34;5030902;28;20037;-61
2023/07/28 00:08:27;;;;;;;14.27;5.88;;;;;;;19.18;100.00;100535.38;5030765;28;20418;-71
2023/07/28 00:10:53;;;;;;;20.33;5.68;;;;;;;19.12;100.00;100533.19;5031339;28;20044;-67
2023/07/28 00:13:18;;;;;;;16.50;6.00;;;;;;;19.18;100.00;100530.03;5032609;28;20465;-71
2023/07/28 00:15:43;;;;;;;16.50;5.60;;;;;;;19.16;100.00;100536.47;5032073;28;20021;-75
2023/07/28 00:18:09;;;;;;;16.02;5.50;;;;;;;19.16;100.00;100525.78;5032617;28;20105;-75
2023/07/28 00:20:34;;;;;;;19.35;6.55;;;;;;;19.15;100.00;100526.75;5031200;28;20117;-77
2023/07/28 00:22:59;;;;;;;12.48;5.97;;;;;;;19.18;100.00;100527.34;5028182;28;20048;-69
2023/07/28 00:25:25;;;;;;;17.83;6.03;;;;;;;19.21;100.00;100522.75;5030729;28;20030;-76
2023/07/28 00:27:50;;;;;;;21.33;7.28;;;;;;;19.13;100.00;100521.53;5031768;28;20017;-73
2023/07/28 00:30:16;;;;;;;17.77;7.57;;;;;;;19.12;100.00;100527.84;5031324;28;20021;-77
2023/07/28 00:32:41;;;;;;;20.00;6.25;;;;;;;19.23;100.00;100520.84;5030442;28;20033;-78
2023/07/28 00:35:07;;;;;;;17.40;6.45;;;;;;;19.24;100.00;100523.41;5031233;28;20033;-67
2023/07/28 00:37:32;;;;;;;18.08;7.40;;;;;;;19.25;100.00;100532.25;5030455;28;20039;-75
2023/07/28 00:39:57;;;;;;;24.10;7.97;;;;;;;19.19;100.00;100520.22;5030495;28;20104;-74
2023/07/28 00:42:23;;;;;;;16.58;6.78;;;;;;;19.19;100.00;100526.41;5031230;28;20484;-73
2023/07/28 00:44:48;;;;;;;21.15;7.53;;;;;;;19.19;100.00;100529.09;5031839;28;20088;-70
2023/07/28 00:47:13;;;;;;;19.77;7.38;;;;;;;19.11;100.00;100534.13;5030041;28;20022;-75
2023/07/28 00:49:39;;;;;;;14.45;6.32;;;;;;;19.24;100.00;100534.06;5018543;28;20034;-74
2023/07/28 00:52:07;;;;;;;16.52;6.55;;;;;;;19.23;100.00;100526.19;5011571;28;20034;-73
2023/07/28 00:54:32;;;;;;;22.63;7.93;;;;;;;19.18;100.00;100529.19;5010012;28;20033;-67
2023/07/28 00:56:58;;;;;;;19.52;6.70;;;;;;;19.21;100.00;100530.78;5010173;28;20030;-73
2023/07/28 00:59:23;;;;;;;21.00;7.78;;;;;;;19.27;100.00;100532.97;5011247;28;20068;-75
2023/07/28 01:01:49;;;;;;;19.92;6.97;;;;;;;19.25;100.00;100526.91;5011825;28;20030;-63
2023/07/28 01:04:14;;;;;;;20.50;7.75;;;;;;;19.24;100.00;100522.53;5035492;28;20457;-75
2023/07/28 01:06:39;;;;;;;15.88;7.00;;;;;;;19.25;100.00;100525.09;5050376;28;20548;-72
2023/07/28 01:09:09;;;;;;;25.65;7.97;;;;;;;19.32;100.00;100528.13;5049820;28;20033;-78
2023/07/28 01:11:35;;;;;;;17.77;6.97;;;;;;;19.25;100.00;100530.44;5049035;28;20037;-73
2023/07/28 01:14:00;;;;;;;19.73;7.72;;;;;;;19.24;100.00;100531.41;5041245;28;20033;-75
2023/07/28 01:16:26;;;;;;;17.90;7.53;;;;;;;19.26;100.00;100529.44;5027841;28;20026;-71
2023/07/28 01:18:51;;;;;;;23.40;7.80;;;;;;;19.34;100.00;100530.69;5011157;28;20026;-72
2023/07/28 01:21:20;;;;;;;20.55;7.10;;;;;;;19.32;100.00;100526.31;5010488;28;20167;-75
2023/07/28 01:23:52;;;;;;;;;;;;;;;19.32;100.00;100520.97;5021826;28;20025;-67
2023/07/28 01:26:27;;;;;;;16.63;6.70;;;;;;;19.30;100.00;100532.75;5031054;28;19917;-77
2023/07/28 01:28:53;;;;;;;25.08;7.93;;;;;;;19.30;100.00;100533.59;5028939;28;20021;-63
2023/07/28 01:31:18;;;;;;;20.45;7.30;;;;;;;19.32;100.00;100529.00;5030926;28;20112;-75
2023/07/28 01:33:43;;;;;;;16.88;7.13;;;;;;;19.28;100.00;100524.00;5030202;28;20022;-77
2023/07/28 01:36:09;;;;;;;18.45;6.70;;;;;;;19.32;100.00;100525.47;5030725;28;20049;-75
2023/07/28 01:38:34;;;;;;;20.02;7.00;;;;;;;19.34;100.00;100520.88;5028586;28;20537;-73
2023/07/28 01:40:59;;;;;;;18.92;7.43;;;;;;;19.35;100.00;100514.53;5030127;28;20517;-75
2023/07/28 01:43:25;;;;;;;17.83;7.65;;;;;;;19.37;100.00;100525.13;5029220;28;20032;-75
2023/07/28 01:45:50;;;;;;;20.23;7.43;;;;;;;19.27;100.00;100531.16;5028991;28;20025;-77
2023/07/28 01:48:16;;;;;;;19.77;7.65;;;;;;;19.34;100.00;100525.34;5030226;28;20097;-72
2023/07/28 01:50:41;;;;;;;23.25;7.35;;;;;;;19.34;100.00;100523.53;5008879;28;20087;-76
2023/07/28 01:53:07;;;;;;;19.75;7.80;;;;;;;19.32;100.00;100531.66;5009432;28;20530;-76
2023/07/28 01:55:32;;;;;;;21.98;7.88;;;;;;;19.35;100.00;100529.75;5008457;28;20490;-74
2023/07/28 01:58:00;;;;;;;15.15;6.55;;;;;;;19.39;100.00;100529.34;5009884;28;20418;-74
2023/07/28 02:00:26;;;;;;;21.33;7.43;;;;;;;19.41;100.00;100526.56;5010164;28;20026;-74
2023/07/28 02:02:52;;;;;;;19.50;7.55;;;;;;;19.40;100.00;100508.84;5017877;28;20025;-76
2023/07/28 02:05:18;;;;;;;20.65;7.22;;;;;;;19.44;100.00;100513.84;5032819;28;20028;-76
2023/07/28 02:07:43;;;;;;;23.52;7.40;;;;;;;19.35;100.00;100509.19;5030516;28;20029;-76
2023/07/28 02:10:10;;;;;;;20.15;7.13;;;;;;;19.36;100.00;100510.94;5030847;28;20037;-76
2023/07/28 02:12:35;;;;;;;15.82;6.93;;;;;;;19.41;100.00;100505.19;5033427;28;20041;-76
2023/07/28 02:15:01;;;;;;;19.35;7.05;;;;;;;19.42;100.00;100501.59;5034082;28;20060;-75
2023/07/28 02:17:26;;;;;;;19.98;7.28;;;;;;;19.36;100.00;100507.38;5031264;28;20029;-65
2023/07/28 02:19:51;;;;;;;21.25;7.65;;;;;;;19.39;100.00;100507.16;5032435;28;20021;-71
2023/07/28 02:22:17;;;;;;;26.08;7.53;;;;;;;19.40;100.00;100506.19;5031433;28;20021;-73
2023/07/28 02:24:42;;;;;;;18.30;6.72;;;;;;;19.44;100.00;100512.97;5031780;28;20037;-75
2023/07/28 02:27:08;;;;;;;19.90;7.03;;;;;;;19.46;100.00;100503.03;5031106;28;20488;-75
2023/07/28 02:29:33;;;;;;;24.60;8.10;;;;;;;19.47;100.00;100503.91;5030904;28;20124;-75
2023/07/28 02:31:58;;;;;;;23.55;6.95;;;;;;;19.51;100.00;100502.69;5029383;28;20030;-72
2023/07/28 02:34:23;;;;;;;31.15;7.53;;;;;;;19.48;100.00;100505.59;5030467;28;20025;-74
2023/07/28 02:36:49;;;;;;;23.20;7.25;;;;;;;19.49;100.00;100509.97;5029884;28;20406;-70
2023/07/28 02:39:15;;;;;;;21.45;7.63;;;;;;;19.48;100.00;100513.59;5029547;28;20494;-77
2023/07/28 02:41:40;;;;;;;23.92;7.60;;;;;;;19.49;100.00;100515.31;5030450;28;20112;-68
2023/07/28 02:44:05;;;;;;;28.65;8.23;;;;;;;19.49;100.00;100517.97;5029262;28;20032;-71
2023/07/28 02:46:30;;;;;;;28.90;7.53;;;;;;;19.52;100.00;100517.75;5028747;28;20040;-74
2023/07/28 02:48:56;;;;;;;29.17;8.60;;;;;;;19.42;100.00;100504.25;5029550;28;20030;-75
2023/07/28 02:51:21;;;;;;;32.17;7.65;;;;;;;19.45;100.00;100498.69;5028174;28;20036;-73
2023/07/28 02:53:47;;;;;;;24.20;8.05;;;;;;;19.41;100.00;100499.84;5027579;28;20033;-76
2023/07/28 02:56:12;;;;;;;27.50;9.10;;;;;;;19.41;100.00;100500.72;5027223;28;20026;-73
2023/07/28 02:58:37;;;;;;;26.45;8.32;;;;;;;19.38;100.00;100506.28;5027906;28;20109;-76
2023/07/28 03:01:03;;;;;;;22.48;8.55;;;;;;;19.35;100.00;100509.19;5029123;28;20029;-70
2023/07/28 03:03:29;;;;;;;23.45;8.25;;;;;;;19.31;100.00;100510.41;5028800;28;20430;-74
2023/07/28 03:05:54;;;;;;;30.75;10.27;;;;;;;19.34;100.00;100507.50;5029060;28;20033;-76
2023/07/28 03:08:20;;;;;;;32.80;9.77;;;;;;;19.35;100.00;100521.72;5028850;28;20032;-66
2023/07/28 03:10:45;;;;;;;26.10;9.57;;;;;;;19.38;100.00;100518.81;5029279;28;20025;-73
2023/07/28 03:13:11;;;;;;;21.05;8.48;;;;;;;19.38;100.00;100526.84;5028703;28;20445;-73
2023/07/28 03:15:36;;;;;;;22.70;8.70;;;;;;;19.39;100.00;100528.53;5028706;28;20029;-64
2023/07/28 03:18:01;;;;;;;28.23;8.45;;;;;;;19.37;100.00;100515.28;5028593;28;20622;-74
2023/07/28 03:20:27;;;;;;;25.30;9.27;;;;;;;19.39;100.00;100517.84;5028173;28;20052;-73
2023/07/28 03:22:54;;;;;;;31.92;10.05;;;;;;;19.31;100.00;100513.94;5028238;28;20496;-68
2023/07/28 03:25:19;;;;;;;24.25;9.27;;;;;;;19.37;100.00;100512.63;5026606;28;20144;-72
2023/07/28 03:27:45;;;;;;;29.27;9.65;;;;;;;19.28;100.00;100518.66;5028237;28;20490;-67
2023/07/28 03:30:10;;;;;;;35.65;10.65;;;;;;;19.29;100.00;100515.88;5027932;28;20022;-72
2023/07/28 03:32:36;;;;;;;28.50;10.02;;;;;;;19.31;100.00;100516.63;5028396;28;20029;-77
2023/07/28 03:35:04;;;;;;;33.63;10.80;;;;;;;19.31;100.00;100519.28;5027566;28;20018;-63
2023/07/28 03:37:29;;;;;;;32.42;10.80;;;;;;;19.31;100.00;100521.97;5009532;28;20026;-71
2023/07/28 03:39:55;;;;;;;35.72;11.27;;;;;;;19.37;100.00;100525.13;5027398;28;20109;-75
2023/07/28 03:42:20;;;;;;;31.80;10.50;;;;;;;19.34;100.00;100525.34;5028376;28;20049;-77
2023/07/28 03:44:45;;;;;;;30.05;10.50;;;;;;;19.38;100.00;100529.50;5027876;28;20022;-75
2023/07/28 03:47:11;;;;;;;40.97;10.63;;;;;;;19.39;100.00;100529.34;5026088;28;20037;-68
2023/07/28 03:49:36;;;;;;;29.27;10.13;;;;;;;19.34;100.00;100523.53;5028253;28;20505;-74
2023/07/28 03:52:02;;;;;;;31.35;10.35;;;;;;;19.38;100.00;100534.84;5027095;28;20041;-76
2023/07/28 03:54:27;;;;;;;32.92;11.13;;;;;;;19.40;100.00;100533.75;5026839;28;20029;-76
2023/07/28 03:56:52;;;;;;;21.02;10.05;;;;;;;19.41;100.00;100535.44;5028113;28;20071;-64
2023/07/28 03:59:18;;;;;;;31.25;10.48;;;;;;;19.42;100.00;100537.13;5028291;28;20075;-75
2023/07/28 04:01:43;;;;;;;24.58;9.35;;;;;;;19.41;100.00;100546.13;5029259;28;20516;-76
2023/07/28 04:04:08;;;;;;;33.10;10.43;;;;;;;19.41;100.00;100547.94;5030932;28;20083;-73
2023/07/28 04:06:44;;;;;;;27.42;10.55;;;;;;;19.41;100.00;100545.28;5030475;28;20030;-73
2023/07/28 04:09:11;;;;;;;28.73;10.27;;;;;;;19.39;100.00;100545.38;5030099;28;20512;-74
2023/07/28 04:11:37;;;;;;;28.40;10.10;;;;;;;19.45;100.00;100538.75;5030989;28;20095;-74
2023/07/28 04:14:02;;;;;;;30.98;10.68;;;;;;;19.41;100.00;100537.25;5031146;28;20041;-62
2023/07/28 04:16:28;;;;;;;32.42;10.32;;;;;;;19.41;100.00;100540.78;5030035;28;20025;-73
2023/07/28 04:18:53;;;;;;;30.17;9.93;;;;;;;19.42;100.00;100541.66;5031303;28;20026;-73
2023/07/28 04:21:18;;;;;;;31.85;9.63;;;;;;;19.45;100.00;100536.06;5031225;28;20477;-76
2023/07/28 04:23:44;;;;;;;30.40;10.15;;;;;;;19.43;100.00;100536.19;5029997;28;20033;-71
2023/07/28 04:26:09;;;;;;;24.42;9.30;;;;;;;19.49;100.00;100534.00;5031101;28;20017;-73
2023/07/28 04:28:34;;;;;;;30.58;10.05;;;;;;;19.42;100.00;100537.13;5031027;28;20654;-75
2023/07/28 04:31:00;;;;;;;25.95;8.95;;;;;;;19.45;100.00;100539.59;5031204;28;20121;-77
2023/07/28 04:33:25;;;;;;;34.40;10.20;;;;;;;19.47;100.00;100538.63;5031207;28;20014;-76
2023/07/28 04:35:50;;;;;;;32.47;10.30;;;;;;;19.52;100.00;100541.78;5031746;28;20427;-74
2023/07/28 04:38:17;;;;;;;25.38;9.32;;;;;;;19.53;100.00;100541.66;5030272;28;20048;-73
2023/07/28 04:40:42;;;;;;;27.45;9.60;;;;;;;19.52;100.00;100549.81;5030185;28;20025;-74
2023/07/28 04:43:07;;;;;;;27.33;9.38;;;;;;;19.54;100.00;100540.69;5030901;28;20029;-76
2023/07/28 04:45:33;;;;;;;23.90;9.27;;;;;;;19.54;100.00;100551.38;5030250;28;20528;-73
2023/07/28 04:47:58;;;;;;;32.53;9.57;;;;;;;19.56;100.00;100551.25;5030357;28;20030;-66
2023/07/28 04:50:24;;;;;;;25.02;9.10;;;;;;;19.57;100.00;100555.66;5030312;28;20117;-72
2023/07/28 04:52:49;;;;;;;23.25;9.23;;;;;;;19.55;100.00;100555.78;5028769;28;20028;-72
2023/07/28 04:55:14;;;;;;;32.83;10.25;;;;;;;19.56;100.00;100553.94;5030250;28;20045;-70
2023/07/28 04:57:40;;;;;;;27.08;9.18;;;;;;;19.57;100.00;100550.31;5030607;28;20035;-75
2023/07/28 05:00:06;;;;;;;35.20;9.77;;;;;;;19.56;100.00;100549.44;5030847;28;20470;-72
2023/07/28 05:02:31;;;;;;;26.83;8.98;;;;;;;19.63;100.00;100555.16;5028758;28;20121;-70
2023/07/28 05:04:56;;;;;;;22.38;8.35;;;;;;;19.65;100.00;100552.38;5029948;28;20128;-69
2023/07/28 05:07:22;;;;;;;26.40;9.35;;;;;;;19.63;100.00;100552.50;5029812;28;20034;-69
2023/07/28 05:09:47;;;;;;;23.95;9.63;;;;;;;19.67;100.00;100559.31;5029494;28;20052;-72
2023/07/28 05:12:13;;;;;;;21.80;8.52;;;;;;;19.73;100.00;100558.00;5028465;28;20444;-71
2023/07/28 05:14:38;;;;;;;28.38;9.27;;;;;;;19.70;100.00;100559.09;5029961;28;20112;-62
2023/07/28 05:17:04;;;;;;;16.85;8.23;;;;;;;19.74;100.00;100561.53;5028509;28;20029;-78
2023/07/28 05:19:29;;;;;;;20.77;8.65;;;;;;;19.73;100.00;100554.47;5028747;28;20046;-75
2023/07/28 05:21:55;;;;;;;24.65;8.70;;;;;;;19.74;100.00;100566.88;5030065;28;20026;-76
2023/07/28 05:24:20;;;;;;;29.83;7.93;;;;;;;19.76;100.00;100562.25;5029027;28;20026;-72
2023/07/28 05:26:45;;;;;;;24.30;9.20;;;;;;;19.78;100.00;100565.66;5029610;28;20021;-74
2023/07/28 05:29:11;;;;;;;30.50;9.32;;;;;;;19.81;100.00;100566.25;5029754;28;20370;-75
2023/07/28 05:31:36;;;;;;;28.13;8.95;;;;;;;19.88;100.00;100563.97;5029246;28;20029;-73
2023/07/28 05:34:01;;;;;;;20.95;7.93;;;;;;;19.88;100.00;100565.78;5029950;28;20017;-69
2023/07/28 05:36:28;;;;;;;24.75;8.15;;;;;;;19.92;100.00;100570.78;5029746;28;20052;-75
2023/07/28 05:38:56;;;;;;;22.50;7.80;;;;;;;19.94;100.00;100573.31;5028761;28;20037;-77
2023/07/28 05:41:21;;;;;;;20.65;8.73;;;;;;;19.90;100.00;100579.91;5042760;28;20035;-74
2023/07/28 05:43:47;;;;;;;26.67;8.60;;;;;;;19.92;100.00;100573.44;5029186;28;20385;-74
2023/07/28 05:46:12;;;;;;;22.48;8.52;;;;;;;19.93;100.00;100577.81;5028867;28;20040;-73
2023/07/28 05:48:38;;;;;;;23.27;8.50;;;;;;;19.97;100.00;100581.13;5042425;28;20026;-74
2023/07/28 05:51:03;;;;;;;21.80;8.63;;;;;;;19.91;100.00;100579.78;5029665;28;20483;-69
2023/07/28 05:53:28;;;;;;;21.45;8.77;;;;;;;19.95;100.00;100588.38;5027805;28;20032;-75
2023/07/28 05:55:54;;;;;;;21.58;8.45;;;;;;;19.99;100.00;100583.66;5029483;28;20080;-73
2023/07/28 05:58:20;;;;;;;22.45;8.30;;;;;;;20.01;100.00;100579.06;5027974;28;20381;-77
2023/07/28 06:00:45;;;;;;;19.45;7.70;;;;;;;19.89;100.00;100591.53;5029222;28;20366;-72
2023/07/28 06:03:14;;;;;;;21.55;8.63;;;;;;;19.89;100.00;100602.22;5029123;28;20028;-75
2023/07/28 06:05:42;;;;;;;20.55;8.00;;;;;;;19.97;100.00;100594.47;5028710;28;20034;-73
2023/07/28 06:08:08;;;;;;;;;;;;;;;20.04;100.00;100593.06;5028689;28;20021;-73
2023/07/28 06:10:33;;;;;;;19.73;7.80;;;;;;;19.98;100.00;100590.00;5027384;28;19923;-72
2023/07/28 06:12:59;;;;;;;15.50;7.05;;;;;;;19.94;100.00;100592.91;5028786;28;20050;-72
2023/07/28 06:15:24;;;;;;;20.15;7.63;;;;;;;20.03;100.00;100603.88;5027294;28;21012;-73
2023/07/28 06:17:50;;;;;;;18.45;7.80;;;;;;;19.99;100.00;100602.38;5028890;28;20053;-73
2023/07/28 06:20:15;;;;;;;26.40;8.65;;;;;;;20.02;100.00;100607.53;5028710;28;20071;-72
2023/07/28 06:22:41;;;;;;;17.50;7.78;;;;;;;20.06;100.00;100598.28;5027620;28;20091;-73
2023/07/28 06:25:07;;;;;;;19.23;7.93;;;;;;;20.04;100.00;100611.78;5028483;28;20041;-74
2023/07/28 06:27:32;;;;;;;17.02;8.43;;;;;;;20.05;100.00;100612.63;5028274;28;20025;-71
2023/07/28 06:29:57;;;;;;;16.77;8.75;;;;;;;20.13;100.00;100614.69;5040792;28;20020;-76
2023/07/28 06:32:23;;;;;;;16.80;8.07;;;;;;;20.23;100.00;100614.84;5042025;28;20029;-73
2023/07/28 06:34:49;;;;;;;20.63;7.93;;;;;;;20.27;100.00;100627.00;5028658;28;20452;-69
2023/07/28 06:37:14;;;;;;;15.20;7.32;;;;;;;20.28;100.00;100631.34;5027328;28;20040;-75
2023/07/28 06:39:40;;;;;;;20.08;7.10;;;;;;;20.35;100.00;100632.59;5027740;28;20053;-66
2023/07/28 06:42:06;;;;;;;13.00;6.78;;;;;;;20.40;100.00;100634.88;5028228;28;20108;-75
2023/07/28 06:44:32;;;;;;;17.08;6.97;;;;;;;20.41;100.00;100629.41;5027093;28;20041;-73
2023/07/28 06:46:57;;;;;;;19.60;6.65;;;;;;;20.44;100.00;100628.34;5026475;28;20026;-70
2023/07/28 06:49:23;;;;;;;21.67;7.20;;;;;;;20.59;100.00;100639.66;5027868;28;20545;-71
2023/07/28 06:51:48;;;;;;;12.13;5.80;;;;;;;20.65;100.00;100628.44;5027667;28;20030;-66
2023/07/28 06:54:14;;;;;;;14.10;5.65;;;;;;;20.88;100.00;100624.88;5028003;28;20375;-73
2023/07/28 06:56:40;;;;;;;11.40;5.78;;;;;;;20.99;100.00;100632.06;5026736;28;20035;-76
2023/07/28 06:59:06;;;;;;;13.10;5.65;;;;;;;21.07;100.00;100632.31;5028013;28;20025;-76
2023/07/28 07:01:32;;;;;;;13.32;5.25;;;;;;;21.18;100.00;100637.63;5027559;28;20404;-71
2023/07/28 07:03:57;;;;;;;14.10;5.20;;;;;;;21.25;100.00;100637.13;5028068;28;20025;-73
2023/07/28 07:06:23;;;;;;;12.07;5.15;;;;;;;21.16;100.00;100638.72;5027157;28;20025;-72
2023/07/28 07:08:48;;;;;;;7.30;4.75;;;;;;;21.22;100.00;100651.59;5026890;28;20375;-71
2023/07/28 07:11:13;;;;;;;11.73;4.68;;;;;;;21.39;100.00;100650.22;5027553;28;20045;-75
2023/07/28 07:13:39;;;;;;;9.88;4.65;;;;;;;21.44;100.00;100656.06;5025739;28;20036;-72
2023/07/28 07:16:06;;;;;;;10.57;5.03;;;;;;;21.41;100.00;100653.63;5026437;28;20033;-77
2023/07/28 07:18:31;;;;;;;9.30;4.70;;;;;;;21.49;100.00;100660.16;5027415;28;20018;-75
2023/07/28 07:21:01;;;;;;;9.10;4.60;;;;;;;21.67;100.00;100658.59;5026966;28;20713;-69
2023/07/28 07:23:27;;;;;;;7.78;4.22;;;;;;;21.70;100.00;100661.03;5025602;28;20363;-73
2023/07/28 07:25:52;;;;;;;9.05;4.13;;;;;;;21.82;100.00;100666.34;5027186;28;20069;-64
2023/07/28 07:28:18;;;;;;;12.70;4.47;;;;;;;21.87;100.00;100666.84;5027692;28;20341;-74
2023/07/28 07:30:43;;;;;;;7.63;4.13;;;;;;;22.01;100.00;100657.63;5027566;28;20041;-76
2023/07/28 07:33:08;;;;;;;4.47;3.53;;;;;;;21.94;100.00;100662.66;5028769;28;20121;-75
2023/07/28 07:35:37;;;;;;;6.35;3.63;;;;;;;22.11;100.00;100659.50;5028249;28;20029;-72
2023/07/28 07:38:06;;;;;;;8.52;3.58;;;;;;;22.22;100.00;100664.78;5029937;28;20576;-70
2023/07/28 07:40:32;;;;;;;5.68;3.70;;;;;;;22.29;100.00;100665.97;5029505;28;20429;-66
2023/07/28 07:42:58;;;;;;;8.85;3.88;;;;;;;22.53;100.00;100669.31;5031921;28;20146;-71
2023/07/28 07:45:23;;;;;;;5.30;3.60;;;;;;;22.64;100.00;100677.31;5031637;28;20556;-72
2023/07/28 07:47:48;;;;;;;6.55;3.60;;;;;;;22.59;100.00;100674.16;5031910;28;20537;-68
2023/07/28 07:50:14;;;;;;;6.78;4.20;;;;;;;22.62;100.00;100673.91;5031254;28;20022;-75
2023/07/28 07:52:39;;;;;;;5.70;3.65;;;;;;;22.74;100.00;100677.34;5031206;28;20026;-75
2023/07/28 07:55:06;;;;;;;6.47;3.58;;;;;;;22.71;100.00;100673.09;5030578;28;20041;-75
2023/07/28 07:57:31;;;;;;;10.18;3.22;;;;;;;22.87;100.00;100679.78;5030464;28;20048;-76
2023/07/28 07:59:59;;;;;;;8.80;3.55;;;;;;;22.94;100.00;100677.41;5030513;28;20462;-71
2023/07/28 08:02:25;;;;;;;6.82;2.85;;;;;;;23.03;100.00;100675.72;5030456;28;20485;-73
2023/07/28 08:04:53;;;;;;;6.03;2.88;;;;;;;23.18;100.00;100685.06;5031271;28;20052;-73
2023/07/28 08:07:19;;;;;;;5.80;3.13;;;;;;;23.22;100.00;100686.50;5029538;28;20501;-73
2023/07/28 08:09:44;;;;;;;4.47;2.75;;;;;;;23.23;100.00;100692.72;5031068;28;20030;-62
2023/07/28 08:12:10;;;;;;;6.13;3.20;;;;;;;23.26;100.00;100691.63;5031206;28;20516;-63
2023/07/28 08:14:36;;;;;;;11.98;3.47;;;;;;;23.26;100.00;100686.25;5029020;28;20034;-69
2023/07/28 08:17:01;;;;;;;6.32;3.20;;;;;;;23.41;100.00;100690.22;5031306;28;20231;-72
2023/07/28 08:19:26;;;;;;;6.28;3.15;;;;;;;23.22;100.00;100681.13;5029906;28;20030;-68
2023/07/28 08:21:52;;;;;;;10.05;3.40;;;;;;;23.34;100.00;100683.69;5016710;28;20356;-72
2023/07/28 08:24:17;;;;;;;5.68;3.45;;;;;;;23.33;100.00;100690.06;5018077;28;20106;-69
2023/07/28 08:26:43;;;;;;;6.43;2.95;;;;;;;23.45;100.00;100686.25;5030491;28;20118;-71
2023/07/28 08:29:08;;;;;;;6.40;3.00;;;;;;;23.56;100.00;100689.81;5031229;28;20026;-64
2023/07/28 08:31:33;;;;;;;7.45;3.13;;;;;;;23.62;100.00;100686.56;5031266;28;20022;-70
2023/07/28 08:33:59;;;;;;;6.55;3.47;;;;;;;23.84;100.00;100679.19;5031297;28;20029;-73
2023/07/28 08:36:24;;;;;;;7.07;3.30;;;;;;;24.09;100.00;100691.19;5031134;28;20071;-73
2023/07/28 08:38:49;;;;;;;7.43;3.13;;;;;;;24.21;100.00;100694.59;5030233;28;20389;-66
2023/07/28 08:41:15;;;;;;;4.72;2.83;;;;;;;24.15;100.00;100692.47;5030161;28;20109;-75
2023/07/28 08:43:40;;;;;;;9.90;3.40;;;;;;;23.96;100.00;100701.41;5029949;28;20052;-73
2023/07/28 08:46:06;;;;;;;8.00;3.20;;;;;;;23.75;100.00;100701.56;5030069;28;20033;-72
2023/07/28 08:48:31;;;;;;;6.20;3.45;;;;;;;23.64;100.00;100702.53;5029882;28;20525;-71
2023/07/28 08:50:56;;;;;;;6.60;2.85;;;;;;;23.46;100.00;100696.06;5031242;28;20031;-73
2023/07/28 08:53:22;;;;;;;8.73;3.47;;;;;;;23.34;100.00;100703.38;5030724;28;20024;-66
2023/07/28 08:55:48;;;;;;;12.05;3.58;;;;;;;23.31;100.00;100706.31;5030887;28;20101;-72
2023/07/28 08:58:18;;;;;;;13.55;3.35;;;;;;;23.40;100.00;100696.59;5031181;28;20017;-72
2023/07/28 09:00:46;;;;;;;7.40;2.90;;;;;;;23.41;100.00;100711.72;5027863;28;20017;-72
2023/07/28 09:03:12;;;;;;;7.95;2.90;;;;;;;23.48;100.00;100706.66;5029321;28;20021;-75
2023/07/28 09:05:40;;;;;;;7.78;3.10;;;;;;;23.18;100.00;100711.13;5029973;28;20048;-74
2023/07/28 09:08:06;;;;;;;9.32;2.90;;;;;;;23.50;100.00;100711.91;5030166;28;20025;-64
2023/07/28 09:10:46;;;;;;;9.00;3.10;;;;;;;23.79;100.00;100706.53;5028251;28;20105;-74
2023/07/28 09:13:13;;;;;;;7.78;3.65;;;;;;;23.86;100.00;100714.84;5029823;28;20028;-71
2023/07/28 09:15:39;;;;;;;9.38;2.78;;;;;;;23.90;100.00;100716.25;5030881;28;20028;-75
2023/07/28 09:18:07;;;;;;;6.95;3.17;;;;;;;24.26;100.00;100712.16;5027211;28;20014;-66
2023/07/28 09:20:37;;;;;;;5.22;3.40;;;;;;;24.20;100.00;100708.19;5030722;28;20021;-68
2023/07/28 09:23:03;;;;;;;8.23;3.22;;;;;;;24.20;100.00;100721.66;5026510;28;20095;-73
2023/07/28 09:25:32;;;;;;;13.35;3.63;;;;;;;24.11;100.00;100713.41;5027691;28;20489;-71
2023/07/28 09:27:58;;;;;;;6.32;3.75;;;;;;;24.04;100.00;100723.06;5029723;28;20026;-74
2023/07/28 09:30:24;;;;;;;7.03;3.58;;;;;;;24.09;100.00;100714.56;5027506;28;20022;-67
2023/07/28 09:32:54;;;;;;;11.55;4.10;;;;;;;23.93;100.00;100712.47;5030152;28;20385;-75
2023/07/28 09:35:21;;;;;;;10.98;4.20;;;;;;;24.02;100.00;100722.34;5028045;28;20212;-75
2023/07/28 09:37:48;;;;;;;9.07;3.90;;;;;;;24.02;100.00;100727.72;5028305;28;20029;-72
2023/07/28 09:40:16;;;;;;;8.55;3.97;;;;;;;24.16;100.00;100723.78;5028277;28;20072;-70
2023/07/28 09:42:49;;;;;;;10.80;3.80;;;;;;;24.32;100.00;100722.34;5028723;28;20057;-73
2023/07/28 09:45:15;;;;;;;9.73;4.28;;;;;;;24.45;100.00;100730.09;5025162;28;20539;-72
2023/07/28 09:47:44;;;;;;;7.93;3.80;;;;;;;24.46;100.00;100738.03;5025931;28;20036;-69
2023/07/28 09:50:10;;;;;;;8.10;3.85;;;;;;;24.36;100.00;100737.19;5029007;28;20025;-70
2023/07/28 09:52:42;;;;;;;8.40;4.07;;;;;;;24.41;100.00;100740.28;5027135;28;20032;-73
2023/07/28 09:55:10;;;;;;;9.60;3.72;;;;;;;24.26;100.00;100739.06;5024620;28;20025;-71
2023/07/28 09:57:41;;;;;;;10.20;3.67;;;;;;;24.28;100.00;100739.75;5029134;28;20408;-69
2023/07/28 10:00:09;;;;;;;7.75;4.45;;;;;;;24.35;100.00;100738.22;5026828;28;20025;-72
2023/07/28 10:02:35;;;;;;;6.88;3.70;;;;;;;24.35;100.00;100739.03;5028436;28;20103;-73
2023/07/28 10:05:01;;;;;;;10.25;3.97;;;;;;;24.17;100.00;100749.69;5027158;28;20032;-69
2023/07/28 10:07:27;;;;;;;11.07;3.97;;;;;;;24.11;100.00;100756.47;5026654;28;20044;-70
2023/07/28 10:09:52;;;;;;;10.70;3.95;;;;;;;24.06;100.00;100752.50;5028677;28;20021;-64
2023/07/28 10:12:28;;;;;;;10.90;3.83;;;;;;;24.10;100.00;100743.16;5028529;28;20366;-68
2023/07/28 10:15:17;;;;;;;10.82;4.45;;;;;;;24.06;100.00;100753.38;5028595;28;20044;-73
2023/07/28 10:17:52;;;;;;;12.48;4.07;;;;;;;23.79;100.00;100754.09;5027864;28;20517;-75
2023/07/28 10:20:30;;;;;;;8.68;3.80;;;;;;;24.05;100.00;100750.81;5028342;28;20025;-73
2023/07/28 10:23:06;;;;;;;6.63;3.42;;;;;;;24.21;100.00;100750.25;5027713;28;20431;-72
2023/07/28 10:25:35;;;;;;;9.75;3.33;;;;;;;24.36;100.00;100754.19;5028273;28;20034;-73
2023/07/28 10:28:02;;;;;;;7.70;3.50;;;;;;;24.40;100.00;100762.84;5029100;28;20021;-70
2023/07/28 10:30:27;;;;;;;11.57;3.67;;;;;;;24.41;100.00;100756.44;5028541;28;20513;-74
2023/07/28 10:32:55;;;;;;;10.48;3.25;;;;;;;24.29;100.00;100753.06;5028345;28;20026;-63
2023/07/28 10:35:25;;;;;;;9.05;3.50;;;;;;;24.00;100.00;100750.38;5026109;28;20345;-62
2023/07/28 10:37:51;;;;;;;8.27;3.67;;;;;;;23.97;100.00;100767.69;5027170;28;20105;-68
2023/07/28 10:40:35;;;;;;;7.35;3.55;;;;;;;23.91;100.00;100761.03;5027282;28;20021;-74
2023/07/28 10:43:02;;;;;;;8.38;3.75;;;;;;;23.97;100.00;100765.00;5026289;28;20087;-63
2023/07/28 10:45:30;;;;;;;8.32;3.60;;;;;;;24.06;100.00;100760.59;5028330;28;20121;-76
2023/07/28 10:47:59;;;;;;;9.88;3.50;;;;;;;24.22;100.00;100768.09;5027601;28;20048;-65
2023/07/28 10:50:27;;;;;;;7.50;3.60;;;;;;;24.26;100.00;100766.00;5030811;28;20022;-72
2023/07/28 10:52:52;;;;;;;8.43;3.45;;;;;;;24.38;100.00;100775.56;5026922;28;20045;-65
2023/07/28 10:55:20;;;;;;;8.23;3.20;;;;;;;24.42;100.00;100763.56;5025077;28;20076;-74
2023/07/28 10:57:47;;;;;;;7.82;3.20;;;;;;;24.46;100.00;100764.94;5009142;28;20032;-69
2023/07/28 11:00:15;;;;;;;10.80;3.40;;;;;;;24.79;100.00;100769.09;5027116;28;20079;-75
2023/07/28 11:02:53;;;;;;;6.65;3.03;;;;;;;24.78;100.00;100778.19;5027051;28;20021;-72
2023/07/28 11:05:22;;;;;;;;;;;;;;;24.96;100.00;100776.41;5026986;28;20382;-65
2023/07/28 11:07:49;;;;;;;6.60;2.90;;;;;;;25.17;100.00;100778.06;5029515;28;20416;-73